sensor_id;sensor_type;location;lat;lon;timestamp;P1;durP1;ratioP1;P2;durP2;ratioP2
77384;SDS011;66443;49.122;8.346;2023-02-13T00:00:02;32.23;;;17.87;;
77384;SDS011;66443;49.122;8.346;2023-02-13T00:02:29;39.73;;;18.23;;
77384;SDS011;66443;49.122;8.346;2023-02-13T00:04:54;44.40;;;20.10;;
77384;SDS011;66443;49.122;8.346;2023-02-13T00:07:20;49.27;;;19.07;;
77384;SDS011;66443;49.122;8.346;2023-02-13T00:09:45;77.40;;;28.17;;
77384;SDS011;66443;49.122;8.346;2023-02-13T00:12:10;39.20;;;19.30;;
77384;SDS011;66443;49.122;8.346;2023-02-13T00:14:36;35.13;;;16.60;;
77384;SDS011;66443;49.122;8.346;2023-02-13T00:17:01;42.17;;;18.40;;
77384;SDS011;66443;49.122;8.346;2023-02-13T00:19:26;49.47;;;19.13;;
77384;SDS011;66443;49.122;8.346;2023-02-13T00:21:52;41.50;;;18.63;;
77384;SDS011;66443;49.122;8.346;2023-02-13T00:24:17;34.50;;;17.67;;
77384;SDS011;66443;49.122;8.346;2023-02-13T00:26:42;38.40;;;18.70;;
77384;SDS011;66443;49.122;8.346;2023-02-13T00:29:07;49.37;;;19.13;;
77384;SDS011;66443;49.122;8.346;2023-02-13T00:31:32;42.20;;;17.70;;
77384;SDS011;66443;49.122;8.346;2023-02-13T00:33:57;39.30;;;19.70;;
77384;SDS011;66443;49.122;8.346;2023-02-13T00:36:23;44.83;;;18.40;;
77384;SDS011;66443;49.122;8.346;2023-02-13T00:38:48;46.17;;;19.53;;
77384;SDS011;66443;49.122;8.346;2023-02-13T00:41:14;39.33;;;18.47;;
77384;SDS011;66443;49.122;8.346;2023-02-13T00:43:41;48.57;;;19.37;;
77384;SDS011;66443;49.122;8.346;2023-02-13T00:46:06;47.40;;;19.17;;
77384;SDS011;66443;49.122;8.346;2023-02-13T00:48:32;36.00;;;18.93;;
77384;SDS011;66443;49.122;8.346;2023-02-13T00:50:58;43.40;;;19.07;;
77384;SDS011;66443;49.122;8.346;2023-02-13T00:53:23;42.83;;;17.83;;
77384;SDS011;66443;49.122;8.346;2023-02-13T00:55:49;49.23;;;19.10;;
77384;SDS011;66443;49.122;8.346;2023-02-13T00:58:15;44.97;;;20.53;;
77384;SDS011;66443;49.122;8.346;2023-02-13T01:00:40;44.20;;;19.77;;
77384;SDS011;66443;49.122;8.346;2023-02-13T01:03:06;49.23;;;19.87;;
77384;SDS011;66443;49.122;8.346;2023-02-13T01:05:31;49.50;;;20.37;;
77384;SDS011;66443;49.122;8.346;2023-02-13T01:07:56;49.73;;;19.43;;
77384;SDS011;66443;49.122;8.346;2023-02-13T01:10:22;50.37;;;21.30;;
77384;SDS011;66443;49.122;8.346;2023-02-13T01:12:47;49.60;;;20.27;;
77384;SDS011;66443;49.122;8.346;2023-02-13T01:15:12;48.77;;;20.20;;
77384;SDS011;66443;49.122;8.346;2023-02-13T01:17:37;49.77;;;19.83;;
77384;SDS011;66443;49.122;8.346;2023-02-13T01:20:06;54.60;;;19.83;;
77384;SDS011;66443;49.122;8.346;2023-02-13T01:22:31;54.70;;;20.10;;
77384;SDS011;66443;49.122;8.346;2023-02-13T01:24:56;54.73;;;20.80;;
77384;SDS011;66443;49.122;8.346;2023-02-13T01:27:22;49.30;;;19.70;;
77384;SDS011;66443;49.122;8.346;2023-02-13T01:29:47;52.10;;;19.43;;
77384;SDS011;66443;49.122;8.346;2023-02-13T01:32:12;57.30;;;20.70;;
77384;SDS011;66443;49.122;8.346;2023-02-13T01:34:37;51.37;;;20.37;;
77384;SDS011;66443;49.122;8.346;2023-02-13T01:37:03;53.33;;;20.80;;
77384;SDS011;66443;49.122;8.346;2023-02-13T01:39:28;51.20;;;19.80;;
77384;SDS011;66443;49.122;8.346;2023-02-13T01:41:53;52.07;;;20.40;;
77384;SDS011;66443;49.122;8.346;2023-02-13T01:47:03;52.10;;;20.90;;
77384;SDS011;66443;49.122;8.346;2023-02-13T01:49:29;59.37;;;20.43;;
77384;SDS011;66443;49.122;8.346;2023-02-13T01:51:54;54.57;;;21.33;;
77384;SDS011;66443;49.122;8.346;2023-02-13T01:54:21;59.93;;;20.40;;
77384;SDS011;66443;49.122;8.346;2023-02-13T01:56:48;60.37;;;21.80;;
77384;SDS011;66443;49.122;8.346;2023-02-13T01:59:16;56.93;;;22.43;;
77384;SDS011;66443;49.122;8.346;2023-02-13T02:01:42;55.47;;;22.47;;
77384;SDS011;66443;49.122;8.346;2023-02-13T02:04:12;63.77;;;24.00;;
77384;SDS011;66443;49.122;8.346;2023-02-13T02:06:40;70.17;;;24.07;;
77384;SDS011;66443;49.122;8.346;2023-02-13T02:09:13;63.77;;;22.83;;
77384;SDS011;66443;49.122;8.346;2023-02-13T02:11:45;71.50;;;24.73;;
77384;SDS011;66443;49.122;8.346;2023-02-13T02:14:12;61.70;;;23.10;;
77384;SDS011;66443;49.122;8.346;2023-02-13T02:16:37;66.17;;;23.10;;
77384;SDS011;66443;49.122;8.346;2023-02-13T02:19:03;64.83;;;23.77;;
77384;SDS011;66443;49.122;8.346;2023-02-13T02:26:57;71.90;;;23.97;;
77384;SDS011;66443;49.122;8.346;2023-02-13T02:37:02;80.10;;;25.00;;
77384;SDS011;66443;49.122;8.346;2023-02-13T02:39:54;78.40;;;24.63;;
77384;SDS011;66443;49.122;8.346;2023-02-13T02:42:21;69.43;;;23.00;;
77384;SDS011;66443;49.122;8.346;2023-02-13T02:47:41;86.97;;;26.87;;
77384;SDS011;66443;49.122;8.346;2023-02-13T02:57:59;82.23;;;26.80;;
77384;SDS011;66443;49.122;8.346;2023-02-13T03:00:45;88.40;;;26.83;;
77384;SDS011;66443;49.122;8.346;2023-02-13T03:03:29;90.03;;;26.50;;
77384;SDS011;66443;49.122;8.346;2023-02-13T03:06:15;97.67;;;26.93;;
77384;SDS011;66443;49.122;8.346;2023-02-13T03:08:42;94.80;;;27.93;;
77384;SDS011;66443;49.122;8.346;2023-02-13T03:11:26;80.60;;;24.80;;
77384;SDS011;66443;49.122;8.346;2023-02-13T03:14:10;85.80;;;27.10;;
77384;SDS011;66443;49.122;8.346;2023-02-13T03:16:37;93.07;;;27.67;;
77384;SDS011;66443;49.122;8.346;2023-02-13T03:22:14;90.23;;;27.50;;
77384;SDS011;66443;49.122;8.346;2023-02-13T03:27:47;99.63;;;27.77;;
77384;SDS011;66443;49.122;8.346;2023-02-13T03:33:16;94.60;;;27.43;;
77384;SDS011;66443;49.122;8.346;2023-02-13T03:38:32;82.10;;;25.33;;
77384;SDS011;66443;49.122;8.346;2023-02-13T03:41:13;95.20;;;27.00;;
77384;SDS011;66443;49.122;8.346;2023-02-13T03:43:48;96.33;;;29.03;;
77384;SDS011;66443;49.122;8.346;2023-02-13T03:46:16;93.67;;;27.97;;
77384;SDS011;66443;49.122;8.346;2023-02-13T03:48:42;93.13;;;26.70;;
77384;SDS011;66443;49.122;8.346;2023-02-13T03:51:48;105.70;;;28.47;;
77384;SDS011;66443;49.122;8.346;2023-02-13T03:54:15;95.03;;;28.60;;
77384;SDS011;66443;49.122;8.346;2023-02-13T03:56:42;91.60;;;27.80;;
77384;SDS011;66443;49.122;8.346;2023-02-13T03:59:28;101.10;;;31.07;;
77384;SDS011;66443;49.122;8.346;2023-02-13T04:04:34;101.77;;;29.67;;
77384;SDS011;66443;49.122;8.346;2023-02-13T04:07:04;96.77;;;29.37;;
77384;SDS011;66443;49.122;8.346;2023-02-13T04:09:30;105.23;;;29.97;;
77384;SDS011;66443;49.122;8.346;2023-02-13T04:12:01;109.80;;;30.43;;
77384;SDS011;66443;49.122;8.346;2023-02-13T04:17:01;104.73;;;30.03;;
77384;SDS011;66443;49.122;8.346;2023-02-13T04:19:27;105.30;;;31.10;;
77384;SDS011;66443;49.122;8.346;2023-02-13T04:21:56;110.63;;;31.53;;
77384;SDS011;66443;49.122;8.346;2023-02-13T04:24:23;104.63;;;29.57;;
77384;SDS011;66443;49.122;8.346;2023-02-13T04:26:48;113.13;;;31.30;;
77384;SDS011;66443;49.122;8.346;2023-02-13T04:29:14;104.97;;;30.07;;
77384;SDS011;66443;49.122;8.346;2023-02-13T04:31:39;116.60;;;32.30;;
77384;SDS011;66443;49.122;8.346;2023-02-13T04:34:04;109.57;;;30.40;;
77384;SDS011;66443;49.122;8.346;2023-02-13T04:36:29;111.27;;;30.57;;
77384;SDS011;66443;49.122;8.346;2023-02-13T04:38:54;105.43;;;30.10;;
77384;SDS011;66443;49.122;8.346;2023-02-13T04:41:19;100.17;;;26.50;;
77384;SDS011;66443;49.122;8.346;2023-02-13T04:43:45;113.53;;;31.17;;
77384;SDS011;66443;49.122;8.346;2023-02-13T04:46:10;119.70;;;32.30;;
77384;SDS011;66443;49.122;8.346;2023-02-13T04:48:35;110.03;;;32.03;;
77384;SDS011;66443;49.122;8.346;2023-02-13T04:51:00;112.60;;;30.07;;
77384;SDS011;66443;49.122;8.346;2023-02-13T04:53:25;112.17;;;31.83;;
77384;SDS011;66443;49.122;8.346;2023-02-13T04:55:51;112.23;;;30.87;;
77384;SDS011;66443;49.122;8.346;2023-02-13T04:58:16;105.80;;;29.33;;
77384;SDS011;66443;49.122;8.346;2023-02-13T05:00:41;103.97;;;30.20;;
77384;SDS011;66443;49.122;8.346;2023-02-13T05:03:07;102.60;;;32.80;;
77384;SDS011;66443;49.122;8.346;2023-02-13T05:05:32;104.00;;;30.83;;
77384;SDS011;66443;49.122;8.346;2023-02-13T05:07:58;102.77;;;29.50;;
77384;SDS011;66443;49.122;8.346;2023-02-13T05:10:23;106.97;;;29.73;;
77384;SDS011;66443;49.122;8.346;2023-02-13T05:12:48;96.30;;;28.97;;
77384;SDS011;66443;49.122;8.346;2023-02-13T05:15:14;87.80;;;27.60;;
77384;SDS011;66443;49.122;8.346;2023-02-13T05:17:42;105.03;;;29.37;;
77384;SDS011;66443;49.122;8.346;2023-02-13T05:20:07;97.37;;;27.93;;
77384;SDS011;66443;49.122;8.346;2023-02-13T05:22:32;95.67;;;28.37;;
77384;SDS011;66443;49.122;8.346;2023-02-13T05:25:16;98.57;;;30.40;;
77384;SDS011;66443;49.122;8.346;2023-02-13T05:27:41;83.70;;;28.03;;
77384;SDS011;66443;49.122;8.346;2023-02-13T05:30:07;87.90;;;28.67;;
77384;SDS011;66443;49.122;8.346;2023-02-13T05:32:32;96.73;;;29.50;;
77384;SDS011;66443;49.122;8.346;2023-02-13T05:34:57;88.25;;;28.27;;
77384;SDS011;66443;49.122;8.346;2023-02-13T05:37:22;102.13;;;29.97;;
77384;SDS011;66443;49.122;8.346;2023-02-13T05:39:47;97.32;;;27.13;;
77384;SDS011;66443;49.122;8.346;2023-02-13T05:42:13;95.33;;;27.43;;
77384;SDS011;66443;49.122;8.346;2023-02-13T05:44:38;88.80;;;27.40;;
77384;SDS011;66443;49.122;8.346;2023-02-13T05:47:03;84.13;;;27.43;;
77384;SDS011;66443;49.122;8.346;2023-02-13T05:49:28;103.13;;;28.63;;
77384;SDS011;66443;49.122;8.346;2023-02-13T05:51:53;90.43;;;28.33;;
77384;SDS011;66443;49.122;8.346;2023-02-13T05:54:19;93.23;;;28.77;;
77384;SDS011;66443;49.122;8.346;2023-02-13T05:56:44;91.77;;;27.57;;
77384;SDS011;66443;49.122;8.346;2023-02-13T05:59:09;97.50;;;28.53;;
77384;SDS011;66443;49.122;8.346;2023-02-13T06:01:35;82.72;;;28.05;;
77384;SDS011;66443;49.122;8.346;2023-02-13T06:04:00;89.10;;;28.03;;
77384;SDS011;66443;49.122;8.346;2023-02-13T06:06:25;88.83;;;27.60;;
77384;SDS011;66443;49.122;8.346;2023-02-13T06:08:50;75.47;;;26.97;;
77384;SDS011;66443;49.122;8.346;2023-02-13T06:11:15;85.63;;;27.87;;
77384;SDS011;66443;49.122;8.346;2023-02-13T06:13:41;84.90;;;25.97;;
77384;SDS011;66443;49.122;8.346;2023-02-13T06:16:07;82.87;;;26.37;;
77384;SDS011;66443;49.122;8.346;2023-02-13T06:18:32;87.17;;;26.57;;
77384;SDS011;66443;49.122;8.346;2023-02-13T06:20:58;83.30;;;25.63;;
77384;SDS011;66443;49.122;8.346;2023-02-13T06:23:24;70.43;;;24.37;;
77384;SDS011;66443;49.122;8.346;2023-02-13T06:25:49;82.77;;;26.97;;
77384;SDS011;66443;49.122;8.346;2023-02-13T06:28:14;78.63;;;25.50;;
77384;SDS011;66443;49.122;8.346;2023-02-13T06:30:39;69.67;;;22.50;;
77384;SDS011;66443;49.122;8.346;2023-02-13T06:33:04;75.10;;;26.63;;
77384;SDS011;66443;49.122;8.346;2023-02-13T06:35:30;83.60;;;25.40;;
77384;SDS011;66443;49.122;8.346;2023-02-13T06:37:56;80.27;;;25.47;;
77384;SDS011;66443;49.122;8.346;2023-02-13T06:40:21;82.50;;;27.67;;
77384;SDS011;66443;49.122;8.346;2023-02-13T06:42:46;78.82;;;27.05;;
77384;SDS011;66443;49.122;8.346;2023-02-13T06:45:11;77.43;;;26.53;;
77384;SDS011;66443;49.122;8.346;2023-02-13T06:47:43;77.23;;;24.33;;
77384;SDS011;66443;49.122;8.346;2023-02-13T06:50:10;81.97;;;27.03;;
77384;SDS011;66443;49.122;8.346;2023-02-13T06:52:36;77.23;;;25.57;;
77384;SDS011;66443;49.122;8.346;2023-02-13T06:55:01;76.33;;;24.07;;
77384;SDS011;66443;49.122;8.346;2023-02-13T06:57:26;72.77;;;24.60;;
77384;SDS011;66443;49.122;8.346;2023-02-13T06:59:56;73.20;;;24.17;;
77384;SDS011;66443;49.122;8.346;2023-02-13T07:02:22;64.97;;;24.80;;
77384;SDS011;66443;49.122;8.346;2023-02-13T07:04:47;71.28;;;23.85;;
77384;SDS011;66443;49.122;8.346;2023-02-13T07:07:12;78.25;;;25.80;;
77384;SDS011;66443;49.122;8.346;2023-02-13T07:09:37;75.43;;;23.47;;
77384;SDS011;66443;49.122;8.346;2023-02-13T07:12:03;66.13;;;23.23;;
77384;SDS011;66443;49.122;8.346;2023-02-13T07:14:28;69.20;;;23.07;;
77384;SDS011;66443;49.122;8.346;2023-02-13T07:16:53;64.77;;;23.43;;
77384;SDS011;66443;49.122;8.346;2023-02-13T07:19:18;63.90;;;23.37;;
77384;SDS011;66443;49.122;8.346;2023-02-13T07:21:44;63.13;;;23.50;;
77384;SDS011;66443;49.122;8.346;2023-02-13T07:24:09;65.13;;;22.83;;
77384;SDS011;66443;49.122;8.346;2023-02-13T07:26:34;60.07;;;23.07;;
77384;SDS011;66443;49.122;8.346;2023-02-13T07:28:59;67.13;;;23.50;;
77384;SDS011;66443;49.122;8.346;2023-02-13T07:31:29;64.83;;;22.77;;
77384;SDS011;66443;49.122;8.346;2023-02-13T07:33:54;62.60;;;22.40;;
77384;SDS011;66443;49.122;8.346;2023-02-13T07:36:20;61.63;;;22.23;;
77384;SDS011;66443;49.122;8.346;2023-02-13T07:38:45;61.90;;;22.10;;
77384;SDS011;66443;49.122;8.346;2023-02-13T07:41:10;70.50;;;22.40;;
77384;SDS011;66443;49.122;8.346;2023-02-13T07:43:35;61.88;;;21.63;;
77384;SDS011;66443;49.122;8.346;2023-02-13T07:46:01;57.13;;;22.20;;
77384;SDS011;66443;49.122;8.346;2023-02-13T07:48:27;73.20;;;24.23;;
77384;SDS011;66443;49.122;8.346;2023-02-13T07:50:52;63.87;;;23.67;;
77384;SDS011;66443;49.122;8.346;2023-02-13T07:53:18;62.73;;;21.87;;
77384;SDS011;66443;49.122;8.346;2023-02-13T07:55:43;60.93;;;22.60;;
77384;SDS011;66443;49.122;8.346;2023-02-13T07:58:08;60.50;;;21.73;;
77384;SDS011;66443;49.122;8.346;2023-02-13T08:00:33;61.37;;;22.83;;
77384;SDS011;66443;49.122;8.346;2023-02-13T08:02:59;65.87;;;22.87;;
77384;SDS011;66443;49.122;8.346;2023-02-13T08:05:24;56.20;;;22.30;;
77384;SDS011;66443;49.122;8.346;2023-02-13T08:07:49;58.40;;;22.10;;
77384;SDS011;66443;49.122;8.346;2023-02-13T08:10:14;60.67;;;23.13;;
77384;SDS011;66443;49.122;8.346;2023-02-13T08:12:58;50.67;;;21.83;;
77384;SDS011;66443;49.122;8.346;2023-02-13T08:15:23;60.30;;;22.47;;
77384;SDS011;66443;49.122;8.346;2023-02-13T08:17:48;52.13;;;21.53;;
77384;SDS011;66443;49.122;8.346;2023-02-13T08:20:13;58.87;;;23.53;;
77384;SDS011;66443;49.122;8.346;2023-02-13T08:22:39;49.20;;;21.70;;
77384;SDS011;66443;49.122;8.346;2023-02-13T08:25:04;50.53;;;20.93;;
77384;SDS011;66443;49.122;8.346;2023-02-13T08:27:30;48.83;;;21.83;;
77384;SDS011;66443;49.122;8.346;2023-02-13T08:29:55;52.23;;;22.33;;
77384;SDS011;66443;49.122;8.346;2023-02-13T08:32:21;53.60;;;22.10;;
77384;SDS011;66443;49.122;8.346;2023-02-13T08:34:46;49.90;;;21.10;;
77384;SDS011;66443;49.122;8.346;2023-02-13T08:37:11;43.50;;;21.80;;
77384;SDS011;66443;49.122;8.346;2023-02-13T08:39:37;42.03;;;19.37;;
77384;SDS011;66443;49.122;8.346;2023-02-13T08:42:02;34.65;;;17.23;;
77384;SDS011;66443;49.122;8.346;2023-02-13T08:44:27;34.00;;;17.27;;
77384;SDS011;66443;49.122;8.346;2023-02-13T08:46:52;29.67;;;18.33;;
77384;SDS011;66443;49.122;8.346;2023-02-13T08:49:17;25.60;;;16.33;;
77384;SDS011;66443;49.122;8.346;2023-02-13T08:51:42;30.50;;;17.67;;
77384;SDS011;66443;49.122;8.346;2023-02-13T08:54:08;28.37;;;17.70;;
77384;SDS011;66443;49.122;8.346;2023-02-13T08:56:33;25.23;;;16.17;;
77384;SDS011;66443;49.122;8.346;2023-02-13T08:58:59;20.00;;;15.80;;
77384;SDS011;66443;49.122;8.346;2023-02-13T09:01:24;25.87;;;15.23;;
77384;SDS011;66443;49.122;8.346;2023-02-13T09:03:49;15.93;;;13.67;;
77384;SDS011;66443;49.122;8.346;2023-02-13T09:06:14;21.00;;;14.40;;
77384;SDS011;66443;49.122;8.346;2023-02-13T09:08:39;18.43;;;13.23;;
77384;SDS011;66443;49.122;8.346;2023-02-13T09:11:05;18.70;;;13.30;;
77384;SDS011;66443;49.122;8.346;2023-02-13T09:13:33;16.73;;;13.83;;
77384;SDS011;66443;49.122;8.346;2023-02-13T09:15:59;18.23;;;13.90;;
77384;SDS011;66443;49.122;8.346;2023-02-13T09:18:25;19.47;;;14.20;;
77384;SDS011;66443;49.122;8.346;2023-02-13T09:20:56;18.73;;;14.33;;
77384;SDS011;66443;49.122;8.346;2023-02-13T09:23:21;18.40;;;13.53;;
77384;SDS011;66443;49.122;8.346;2023-02-13T09:25:46;16.53;;;13.83;;
77384;SDS011;66443;49.122;8.346;2023-02-13T09:28:11;18.20;;;14.93;;
77384;SDS011;66443;49.122;8.346;2023-02-13T09:30:36;20.90;;;12.93;;
77384;SDS011;66443;49.122;8.346;2023-02-13T09:33:01;17.53;;;13.20;;
77384;SDS011;66443;49.122;8.346;2023-02-13T09:35:27;16.00;;;12.77;;
77384;SDS011;66443;49.122;8.346;2023-02-13T09:37:53;14.23;;;12.27;;
77384;SDS011;66443;49.122;8.346;2023-02-13T09:40:26;15.53;;;12.73;;
77384;SDS011;66443;49.122;8.346;2023-02-13T09:42:52;16.70;;;13.70;;
77384;SDS011;66443;49.122;8.346;2023-02-13T09:45:19;16.17;;;13.37;;
77384;SDS011;66443;49.122;8.346;2023-02-13T09:47:45;19.50;;;12.60;;
77384;SDS011;66443;49.122;8.346;2023-02-13T09:50:21;13.60;;;12.17;;
77384;SDS011;66443;49.122;8.346;2023-02-13T09:52:48;13.87;;;12.27;;
77384;SDS011;66443;49.122;8.346;2023-02-13T09:55:22;13.60;;;11.60;;
77384;SDS011;66443;49.122;8.346;2023-02-13T10:00:25;15.97;;;12.20;;
77384;SDS011;66443;49.122;8.346;2023-02-13T10:15:45;12.47;;;11.17;;
77384;SDS011;66443;49.122;8.346;2023-02-13T10:18:14;13.83;;;11.53;;
77384;SDS011;66443;49.122;8.346;2023-02-13T10:20:42;14.77;;;12.10;;
77384;SDS011;66443;49.122;8.346;2023-02-13T10:26:30;13.13;;;11.83;;
77384;SDS011;66443;49.122;8.346;2023-02-13T10:28:42;11.83;;;10.63;;
77384;SDS011;66443;49.122;8.346;2023-02-13T10:31:12;12.10;;;10.53;;
77384;SDS011;66443;49.122;8.346;2023-02-13T10:33:51;13.00;;;11.60;;
77384;SDS011;66443;49.122;8.346;2023-02-13T10:36:17;12.73;;;10.93;;
77384;SDS011;66443;49.122;8.346;2023-02-13T10:38:44;14.03;;;11.73;;
77384;SDS011;66443;49.122;8.346;2023-02-13T10:52:17;12.83;;;11.00;;
77384;SDS011;66443;49.122;8.346;2023-02-13T10:57:16;11.53;;;10.33;;
77384;SDS011;66443;49.122;8.346;2023-02-13T11:02:14;11.97;;;10.77;;
77384;SDS011;66443;49.122;8.346;2023-02-13T11:04:44;12.67;;;11.37;;
77384;SDS011;66443;49.122;8.346;2023-02-13T11:07:10;11.60;;;10.40;;
77384;SDS011;66443;49.122;8.346;2023-02-13T11:09:37;11.20;;;10.00;;
77384;SDS011;66443;49.122;8.346;2023-02-13T11:12:23;12.33;;;11.10;;
77384;SDS011;66443;49.122;8.346;2023-02-13T11:14:55;13.10;;;11.47;;
77384;SDS011;66443;49.122;8.346;2023-02-13T11:17:21;11.90;;;10.80;;
77384;SDS011;66443;49.122;8.346;2023-02-13T11:22:12;11.67;;;10.47;;
77384;SDS011;66443;49.122;8.346;2023-02-13T11:24:42;12.73;;;11.03;;
77384;SDS011;66443;49.122;8.346;2023-02-13T11:27:14;11.57;;;10.37;;
77384;SDS011;66443;49.122;8.346;2023-02-13T11:32:18;11.67;;;10.57;;
77384;SDS011;66443;49.122;8.346;2023-02-13T11:34:43;12.03;;;10.83;;
77384;SDS011;66443;49.122;8.346;2023-02-13T11:39:38;11.87;;;10.67;;
77384;SDS011;66443;49.122;8.346;2023-02-13T11:42:05;12.00;;;10.63;;
77384;SDS011;66443;49.122;8.346;2023-02-13T11:44:36;13.33;;;10.90;;
77384;SDS011;66443;49.122;8.346;2023-02-13T11:47:01;12.47;;;10.73;;
77384;SDS011;66443;49.122;8.346;2023-02-13T11:49:30;11.17;;;10.17;;
77384;SDS011;66443;49.122;8.346;2023-02-13T11:51:57;13.03;;;10.90;;
77384;SDS011;66443;49.122;8.346;2023-02-13T11:56:49;12.93;;;9.82;;
77384;SDS011;66443;49.122;8.346;2023-02-13T11:59:15;11.40;;;10.30;;
77384;SDS011;66443;49.122;8.346;2023-02-13T12:01:40;10.80;;;9.50;;
77384;SDS011;66443;49.122;8.346;2023-02-13T12:06:40;11.23;;;10.23;;
77384;SDS011;66443;49.122;8.346;2023-02-13T12:09:12;9.47;;;8.63;;
77384;SDS011;66443;49.122;8.346;2023-02-13T12:11:46;10.10;;;9.20;;
77384;SDS011;66443;49.122;8.346;2023-02-13T12:14:15;10.37;;;9.47;;
77384;SDS011;66443;49.122;8.346;2023-02-13T12:16:51;11.90;;;9.47;;
77384;SDS011;66443;49.122;8.346;2023-02-13T12:19:23;10.17;;;9.37;;
77384;SDS011;66443;49.122;8.346;2023-02-13T12:26:43;11.43;;;10.43;;
77384;SDS011;66443;49.122;8.346;2023-02-13T12:39:16;10.90;;;9.60;;
77384;SDS011;66443;49.122;8.346;2023-02-13T12:44:12;9.00;;;8.30;;
77384;SDS011;66443;49.122;8.346;2023-02-13T12:49:25;10.70;;;9.70;;
77384;SDS011;66443;49.122;8.346;2023-02-13T12:57:30;9.87;;;9.03;;
77384;SDS011;66443;49.122;8.346;2023-02-13T13:13:49;9.93;;;9.23;;
77384;SDS011;66443;49.122;8.346;2023-02-13T13:16:30;11.30;;;10.37;;
77384;SDS011;66443;49.122;8.346;2023-02-13T13:24:53;11.07;;;10.07;;
77384;SDS011;66443;49.122;8.346;2023-02-13T13:27:23;9.90;;;9.17;;
77384;SDS011;66443;49.122;8.346;2023-02-13T13:32:27;10.37;;;9.57;;
77384;SDS011;66443;49.122;8.346;2023-02-13T13:34:52;10.57;;;9.70;;
77384;SDS011;66443;49.122;8.346;2023-02-13T13:37:29;10.90;;;10.00;;
77384;SDS011;66443;49.122;8.346;2023-02-13T13:40:15;10.55;;;9.75;;
77384;SDS011;66443;49.122;8.346;2023-02-13T13:42:50;11.45;;;10.55;;
77384;SDS011;66443;49.122;8.346;2023-02-13T13:47:47;10.50;;;9.70;;
77384;SDS011;66443;49.122;8.346;2023-02-13T13:50:18;10.57;;;9.88;;
77384;SDS011;66443;49.122;8.346;2023-02-13T13:58:22;10.35;;;9.55;;
77384;SDS011;66443;49.122;8.346;2023-02-13T14:01:32;10.25;;;9.45;;
77384;SDS011;66443;49.122;8.346;2023-02-13T14:03:33;11.48;;;10.57;;
77384;SDS011;66443;49.122;8.346;2023-02-13T14:06:07;10.68;;;9.82;;
77384;SDS011;66443;49.122;8.346;2023-02-13T14:11:05;9.98;;;9.18;;
77384;SDS011;66443;49.122;8.346;2023-02-13T14:13:37;10.35;;;9.57;;
77384;SDS011;66443;49.122;8.346;2023-02-13T14:16:04;10.43;;;9.73;;
77384;SDS011;66443;49.122;8.346;2023-02-13T14:18:29;10.13;;;9.43;;
77384;SDS011;66443;49.122;8.346;2023-02-13T14:20:58;10.27;;;9.57;;
77384;SDS011;66443;49.122;8.346;2023-02-13T14:23:29;9.75;;;9.05;;
77384;SDS011;66443;49.122;8.346;2023-02-13T14:28:35;9.13;;;8.52;;
77384;SDS011;66443;49.122;8.346;2023-02-13T14:31:08;9.75;;;9.05;;
77384;SDS011;66443;49.122;8.346;2023-02-13T14:33:36;8.77;;;7.97;;
77384;SDS011;66443;49.122;8.346;2023-02-13T14:36:22;8.45;;;7.85;;
77384;SDS011;66443;49.122;8.346;2023-02-13T14:38:57;9.70;;;9.00;;
77384;SDS011;66443;49.122;8.346;2023-02-13T14:41:42;9.52;;;8.82;;
77384;SDS011;66443;49.122;8.346;2023-02-13T14:44:15;9.73;;;8.93;;
77384;SDS011;66443;49.122;8.346;2023-02-13T14:46:42;9.88;;;9.18;;
77384;SDS011;66443;49.122;8.346;2023-02-13T14:51:45;9.03;;;8.40;;
77384;SDS011;66443;49.122;8.346;2023-02-13T14:54:14;10.13;;;9.33;;
77384;SDS011;66443;49.122;8.346;2023-02-13T14:56:43;9.53;;;8.83;;
77384;SDS011;66443;49.122;8.346;2023-02-13T14:59:14;9.73;;;8.93;;
77384;SDS011;66443;49.122;8.346;2023-02-13T15:01:49;11.40;;;9.17;;
77384;SDS011;66443;49.122;8.346;2023-02-13T15:04:18;9.33;;;8.53;;
77384;SDS011;66443;49.122;8.346;2023-02-13T15:06:44;9.07;;;8.37;;
77384;SDS011;66443;49.122;8.346;2023-02-13T15:09:16;10.33;;;9.53;;
77384;SDS011;66443;49.122;8.346;2023-02-13T15:11:43;10.00;;;9.10;;
77384;SDS011;66443;49.122;8.346;2023-02-13T15:14:18;9.50;;;8.63;;
77384;SDS011;66443;49.122;8.346;2023-02-13T15:16:44;8.60;;;7.90;;
77384;SDS011;66443;49.122;8.346;2023-02-13T15:19:13;10.20;;;9.30;;
77384;SDS011;66443;49.122;8.346;2023-02-13T15:21:44;10.00;;;9.17;;
77384;SDS011;66443;49.122;8.346;2023-02-13T15:24:11;9.90;;;9.10;;
77384;SDS011;66443;49.122;8.346;2023-02-13T15:26:37;10.70;;;9.70;;
77384;SDS011;66443;49.122;8.346;2023-02-13T15:29:24;10.13;;;9.23;;
77384;SDS011;66443;49.122;8.346;2023-02-13T15:31:48;10.33;;;9.53;;
77384;SDS011;66443;49.122;8.346;2023-02-13T15:34:30;9.33;;;8.53;;
77384;SDS011;66443;49.122;8.346;2023-02-13T15:36:58;10.70;;;9.80;;
77384;SDS011;66443;49.122;8.346;2023-02-13T15:39:24;10.00;;;9.20;;
77384;SDS011;66443;49.122;8.346;2023-02-13T15:41:54;10.00;;;9.20;;
77384;SDS011;66443;49.122;8.346;2023-02-13T15:44:21;10.57;;;9.47;;
77384;SDS011;66443;49.122;8.346;2023-02-13T15:46:47;10.37;;;9.47;;
77384;SDS011;66443;49.122;8.346;2023-02-13T15:49:15;11.83;;;10.70;;
77384;SDS011;66443;49.122;8.346;2023-02-13T15:51:40;10.53;;;9.63;;
77384;SDS011;66443;49.122;8.346;2023-02-13T15:54:18;10.23;;;9.23;;
77384;SDS011;66443;49.122;8.346;2023-02-13T15:56:45;9.10;;;8.30;;
77384;SDS011;66443;49.122;8.346;2023-02-13T15:59:11;10.47;;;9.57;;
77384;SDS011;66443;49.122;8.346;2023-02-13T16:01:36;10.70;;;9.80;;
77384;SDS011;66443;49.122;8.346;2023-02-13T16:04:04;9.87;;;9.07;;
77384;SDS011;66443;49.122;8.346;2023-02-13T16:06:30;10.77;;;9.83;;
77384;SDS011;66443;49.122;8.346;2023-02-13T16:08:57;10.40;;;9.53;;
77384;SDS011;66443;49.122;8.346;2023-02-13T16:11:29;11.10;;;10.00;;
77384;SDS011;66443;49.122;8.346;2023-02-13T16:14:15;10.70;;;9.70;;
77384;SDS011;66443;49.122;8.346;2023-02-13T16:16:43;10.03;;;9.20;;
77384;SDS011;66443;49.122;8.346;2023-02-13T16:19:18;10.73;;;9.73;;
77384;SDS011;66443;49.122;8.346;2023-02-13T16:21:46;10.40;;;9.47;;
77384;SDS011;66443;49.122;8.346;2023-02-13T16:24:12;11.17;;;10.07;;
77384;SDS011;66443;49.122;8.346;2023-02-13T16:26:39;10.40;;;9.47;;
77384;SDS011;66443;49.122;8.346;2023-02-13T16:29:08;10.50;;;9.50;;
77384;SDS011;66443;49.122;8.346;2023-02-13T16:31:34;10.50;;;9.60;;
77384;SDS011;66443;49.122;8.346;2023-02-13T16:33:59;10.77;;;9.67;;
77384;SDS011;66443;49.122;8.346;2023-02-13T16:36:36;10.27;;;8.87;;
77384;SDS011;66443;49.122;8.346;2023-02-13T16:39:18;9.52;;;8.73;;
77384;SDS011;66443;49.122;8.346;2023-02-13T16:41:43;12.33;;;9.83;;
77384;SDS011;66443;49.122;8.346;2023-02-13T16:44:28;10.90;;;9.87;;
77384;SDS011;66443;49.122;8.346;2023-02-13T16:46:58;9.67;;;8.77;;
77384;SDS011;66443;49.122;8.346;2023-02-13T16:49:29;10.87;;;9.80;;
77384;SDS011;66443;49.122;8.346;2023-02-13T16:51:56;12.07;;;9.37;;
77384;SDS011;66443;49.122;8.346;2023-02-13T16:54:32;12.47;;;9.50;;
77384;SDS011;66443;49.122;8.346;2023-02-13T17:02:25;10.57;;;9.40;;
77384;SDS011;66443;49.122;8.346;2023-02-13T17:05:01;11.27;;;9.53;;
77384;SDS011;66443;49.122;8.346;2023-02-13T17:07:37;10.70;;;9.70;;